sensor_id;sensor_type;location;lat;lon;timestamp;P1;durP1;ratioP1;P2;durP2;ratioP2
46755;SDS011;32506;52.826;-1.192;2023-10-08T00:01:34;12.05;;;6.00;;
46755;SDS011;32506;52.826;-1.192;2023-10-08T00:04:00;11.95;;;5.72;;
46755;SDS011;32506;52.826;-1.192;2023-10-08T00:06:29;12.85;;;6.57;;
46755;SDS011;32506;52.826;-1.192;2023-10-08T00:08:55;12.27;;;6.57;;
46755;SDS011;32506;52.826;-1.192;2023-10-08T00:11:25;14.55;;;7.05;;
46755;SDS011;32506;52.826;-1.192;2023-10-08T00:13:50;12.57;;;6.53;;
46755;SDS011;32506;52.826;-1.192;2023-10-08T00:16:20;11.85;;;5.68;;
46755;SDS011;32506;52.826;-1.192;2023-10-08T00:18:47;12.38;;;6.28;;
46755;SDS011;32506;52.826;-1.192;2023-10-08T00:21:15;13.98;;;6.75;;
46755;SDS011;32506;52.826;-1.192;2023-10-08T00:23:45;10.85;;;6.28;;
46755;SDS011;32506;52.826;-1.192;2023-10-08T00:26:21;12.93;;;6.63;;
46755;SDS011;32506;52.826;-1.192;2023-10-08T00:28:58;11.73;;;5.88;;
46755;SDS011;32506;52.826;-1.192;2023-10-08T00:31:25;12.05;;;6.35;;
46755;SDS011;32506;52.826;-1.192;2023-10-08T00:34:02;13.43;;;6.03;;
46755;SDS011;32506;52.826;-1.192;2023-10-08T00:36:30;12.73;;;6.80;;
46755;SDS011;32506;52.826;-1.192;2023-10-08T00:38:56;10.73;;;5.65;;
46755;SDS011;32506;52.826;-1.192;2023-10-08T00:41:25;11.25;;;5.65;;
46755;SDS011;32506;52.826;-1.192;2023-10-08T00:43:57;11.60;;;6.20;;
46755;SDS011;32506;52.826;-1.192;2023-10-08T00:46:24;11.73;;;6.50;;
46755;SDS011;32506;52.826;-1.192;2023-10-08T00:48:56;13.82;;;6.35;;
46755;SDS011;32506;52.826;-1.192;2023-10-08T00:51:24;10.63;;;6.13;;
46755;SDS011;32506;52.826;-1.192;2023-10-08T00:54:02;10.65;;;5.78;;
46755;SDS011;32506;52.826;-1.192;2023-10-08T00:56:33;11.23;;;5.85;;
46755;SDS011;32506;52.826;-1.192;2023-10-08T00:59:12;11.15;;;5.90;;
46755;SDS011;32506;52.826;-1.192;2023-10-08T01:01:44;12.32;;;6.32;;
46755;SDS011;32506;52.826;-1.192;2023-10-08T01:04:20;11.10;;;6.07;;
46755;SDS011;32506;52.826;-1.192;2023-10-08T01:06:59;11.15;;;6.03;;
46755;SDS011;32506;52.826;-1.192;2023-10-08T01:09:37;11.60;;;5.70;;
46755;SDS011;32506;52.826;-1.192;2023-10-08T01:12:11;11.95;;;5.40;;
46755;SDS011;32506;52.826;-1.192;2023-10-08T01:14:58;10.85;;;6.30;;
46755;SDS011;32506;52.826;-1.192;2023-10-08T01:17:38;10.75;;;5.40;;
46755;SDS011;32506;52.826;-1.192;2023-10-08T01:20:12;11.70;;;6.25;;
46755;SDS011;32506;52.826;-1.192;2023-10-08T01:22:58;12.43;;;6.07;;
46755;SDS011;32506;52.826;-1.192;2023-10-08T01:25:23;11.35;;;5.85;;
46755;SDS011;32506;52.826;-1.192;2023-10-08T01:27:55;13.35;;;6.25;;
46755;SDS011;32506;52.826;-1.192;2023-10-08T01:30:21;13.38;;;6.00;;
46755;SDS011;32506;52.826;-1.192;2023-10-08T01:32:46;11.90;;;5.78;;
46755;SDS011;32506;52.826;-1.192;2023-10-08T01:35:12;10.27;;;5.80;;
46755;SDS011;32506;52.826;-1.192;2023-10-08T01:37:51;10.23;;;5.85;;
46755;SDS011;32506;52.826;-1.192;2023-10-08T01:40:20;12.05;;;5.90;;
46755;SDS011;32506;52.826;-1.192;2023-10-08T01:42:46;11.30;;;5.53;;
46755;SDS011;32506;52.826;-1.192;2023-10-08T01:45:11;13.20;;;5.75;;
46755;SDS011;32506;52.826;-1.192;2023-10-08T01:47:42;11.35;;;5.60;;
46755;SDS011;32506;52.826;-1.192;2023-10-08T01:50:08;12.23;;;6.10;;
46755;SDS011;32506;52.826;-1.192;2023-10-08T01:52:46;9.32;;;5.35;;
46755;SDS011;32506;52.826;-1.192;2023-10-08T01:55:14;11.43;;;5.55;;
46755;SDS011;32506;52.826;-1.192;2023-10-08T01:57:44;12.13;;;5.97;;
46755;SDS011;32506;52.826;-1.192;2023-10-08T02:00:14;12.63;;;5.85;;
46755;SDS011;32506;52.826;-1.192;2023-10-08T02:02:44;9.40;;;5.13;;
46755;SDS011;32506;52.826;-1.192;2023-10-08T02:05:15;10.85;;;5.10;;
46755;SDS011;32506;52.826;-1.192;2023-10-08T02:07:44;12.05;;;5.53;;
46755;SDS011;32506;52.826;-1.192;2023-10-08T02:10:11;11.90;;;5.75;;
46755;SDS011;32506;52.826;-1.192;2023-10-08T02:12:40;10.93;;;5.38;;
46755;SDS011;32506;52.826;-1.192;2023-10-08T02:15:09;11.00;;;5.72;;
46755;SDS011;32506;52.826;-1.192;2023-10-08T02:17:36;10.30;;;5.72;;
46755;SDS011;32506;52.826;-1.192;2023-10-08T02:20:02;11.73;;;5.78;;
46755;SDS011;32506;52.826;-1.192;2023-10-08T02:22:30;13.88;;;5.40;;
46755;SDS011;32506;52.826;-1.192;2023-10-08T02:24:58;12.70;;;5.20;;
46755;SDS011;32506;52.826;-1.192;2023-10-08T02:27:27;10.90;;;5.50;;
46755;SDS011;32506;52.826;-1.192;2023-10-08T02:29:52;9.70;;;5.13;;
46755;SDS011;32506;52.826;-1.192;2023-10-08T02:32:18;11.82;;;5.15;;
46755;SDS011;32506;52.826;-1.192;2023-10-08T02:34:43;11.25;;;5.85;;
46755;SDS011;32506;52.826;-1.192;2023-10-08T02:37:10;8.68;;;4.85;;
46755;SDS011;32506;52.826;-1.192;2023-10-08T02:39:37;11.35;;;5.22;;
46755;SDS011;32506;52.826;-1.192;2023-10-08T02:42:05;10.77;;;6.25;;
46755;SDS011;32506;52.826;-1.192;2023-10-08T02:44:35;9.98;;;5.43;;
46755;SDS011;32506;52.826;-1.192;2023-10-08T02:47:06;10.13;;;5.43;;
46755;SDS011;32506;52.826;-1.192;2023-10-08T02:49:47;10.88;;;5.60;;
46755;SDS011;32506;52.826;-1.192;2023-10-08T02:52:17;8.88;;;4.75;;
46755;SDS011;32506;52.826;-1.192;2023-10-08T02:54:43;9.07;;;5.03;;
46755;SDS011;32506;52.826;-1.192;2023-10-08T02:57:08;8.13;;;4.78;;
46755;SDS011;32506;52.826;-1.192;2023-10-08T02:59:39;10.55;;;5.35;;
46755;SDS011;32506;52.826;-1.192;2023-10-08T03:02:09;9.38;;;4.70;;
46755;SDS011;32506;52.826;-1.192;2023-10-08T03:04:43;10.27;;;5.50;;
46755;SDS011;32506;52.826;-1.192;2023-10-08T03:07:16;8.75;;;4.65;;
46755;SDS011;32506;52.826;-1.192;2023-10-08T03:09:57;11.40;;;5.15;;
46755;SDS011;32506;52.826;-1.192;2023-10-08T03:12:34;9.85;;;5.10;;
46755;SDS011;32506;52.826;-1.192;2023-10-08T03:15:00;9.40;;;4.97;;
46755;SDS011;32506;52.826;-1.192;2023-10-08T03:17:44;10.68;;;6.00;;
46755;SDS011;32506;52.826;-1.192;2023-10-08T03:20:19;9.68;;;4.80;;
46755;SDS011;32506;52.826;-1.192;2023-10-08T03:23:13;9.68;;;5.30;;
46755;SDS011;32506;52.826;-1.192;2023-10-08T03:25:55;9.48;;;5.35;;
46755;SDS011;32506;52.826;-1.192;2023-10-08T03:28:25;10.15;;;5.20;;
46755;SDS011;32506;52.826;-1.192;2023-10-08T03:30:52;10.48;;;5.20;;
46755;SDS011;32506;52.826;-1.192;2023-10-08T03:33:38;10.75;;;5.88;;
46755;SDS011;32506;52.826;-1.192;2023-10-08T03:36:03;10.63;;;5.55;;
46755;SDS011;32506;52.826;-1.192;2023-10-08T03:38:36;10.10;;;5.50;;
46755;SDS011;32506;52.826;-1.192;2023-10-08T03:43:52;11.40;;;5.57;;
46755;SDS011;32506;52.826;-1.192;2023-10-08T03:46:20;11.65;;;5.78;;
46755;SDS011;32506;52.826;-1.192;2023-10-08T03:48:48;11.35;;;6.28;;
46755;SDS011;32506;52.826;-1.192;2023-10-08T03:51:16;11.18;;;6.50;;
46755;SDS011;32506;52.826;-1.192;2023-10-08T03:53:45;10.82;;;5.60;;
46755;SDS011;32506;52.826;-1.192;2023-10-08T03:56:30;11.52;;;5.82;;
46755;SDS011;32506;52.826;-1.192;2023-10-08T03:58:56;11.15;;;6.30;;
46755;SDS011;32506;52.826;-1.192;2023-10-08T04:01:54;9.13;;;5.10;;
46755;SDS011;32506;52.826;-1.192;2023-10-08T04:04:23;12.00;;;5.40;;
46755;SDS011;32506;52.826;-1.192;2023-10-08T04:06:55;10.60;;;5.10;;
46755;SDS011;32506;52.826;-1.192;2023-10-08T04:09:41;12.13;;;5.95;;
46755;SDS011;32506;52.826;-1.192;2023-10-08T04:12:07;11.40;;;5.70;;
46755;SDS011;32506;52.826;-1.192;2023-10-08T04:14:36;10.20;;;5.25;;
46755;SDS011;32506;52.826;-1.192;2023-10-08T04:17:02;10.35;;;5.63;;
46755;SDS011;32506;52.826;-1.192;2023-10-08T04:19:29;12.18;;;5.78;;
46755;SDS011;32506;52.826;-1.192;2023-10-08T04:21:55;10.90;;;5.70;;
46755;SDS011;32506;52.826;-1.192;2023-10-08T04:24:22;11.60;;;5.38;;
46755;SDS011;32506;52.826;-1.192;2023-10-08T04:26:59;9.25;;;5.43;;
46755;SDS011;32506;52.826;-1.192;2023-10-08T04:29:30;11.90;;;5.97;;
46755;SDS011;32506;52.826;-1.192;2023-10-08T04:31:58;10.80;;;5.50;;
46755;SDS011;32506;52.826;-1.192;2023-10-08T04:34:33;11.88;;;5.70;;
46755;SDS011;32506;52.826;-1.192;2023-10-08T04:37:01;9.00;;;5.18;;
46755;SDS011;32506;52.826;-1.192;2023-10-08T04:39:28;9.88;;;4.93;;
46755;SDS011;32506;52.826;-1.192;2023-10-08T04:42:01;9.90;;;5.15;;
46755;SDS011;32506;52.826;-1.192;2023-10-08T04:44:38;9.90;;;5.38;;
46755;SDS011;32506;52.826;-1.192;2023-10-08T04:47:05;9.85;;;5.38;;
46755;SDS011;32506;52.826;-1.192;2023-10-08T04:49:33;11.68;;;5.68;;
46755;SDS011;32506;52.826;-1.192;2023-10-08T04:54:39;13.07;;;6.50;;
46755;SDS011;32506;52.826;-1.192;2023-10-08T04:57:16;10.35;;;5.65;;
46755;SDS011;32506;52.826;-1.192;2023-10-08T04:59:46;8.82;;;4.95;;
46755;SDS011;32506;52.826;-1.192;2023-10-08T05:02:15;12.23;;;5.65;;
46755;SDS011;32506;52.826;-1.192;2023-10-08T05:04:44;9.48;;;5.13;;
46755;SDS011;32506;52.826;-1.192;2023-10-08T05:07:22;9.50;;;4.88;;
46755;SDS011;32506;52.826;-1.192;2023-10-08T05:10:07;8.68;;;5.10;;
46755;SDS011;32506;52.826;-1.192;2023-10-08T05:12:33;8.48;;;4.65;;
46755;SDS011;32506;52.826;-1.192;2023-10-08T05:15:24;9.00;;;5.10;;
46755;SDS011;32506;52.826;-1.192;2023-10-08T05:17:58;9.10;;;5.20;;
46755;SDS011;32506;52.826;-1.192;2023-10-08T05:20:38;10.35;;;5.40;;
46755;SDS011;32506;52.826;-1.192;2023-10-08T05:23:13;10.32;;;5.03;;
46755;SDS011;32506;52.826;-1.192;2023-10-08T05:25:49;8.45;;;4.63;;
46755;SDS011;32506;52.826;-1.192;2023-10-08T05:28:30;8.07;;;4.50;;
46755;SDS011;32506;52.826;-1.192;2023-10-08T05:31:06;8.10;;;4.72;;
46755;SDS011;32506;52.826;-1.192;2023-10-08T05:33:41;11.93;;;5.25;;
46755;SDS011;32506;52.826;-1.192;2023-10-08T05:36:26;10.55;;;5.50;;
46755;SDS011;32506;52.826;-1.192;2023-10-08T05:39:18;9.55;;;5.53;;
46755;SDS011;32506;52.826;-1.192;2023-10-08T05:41:55;9.55;;;5.10;;
46755;SDS011;32506;52.826;-1.192;2023-10-08T05:44:40;10.38;;;5.07;;
46755;SDS011;32506;52.826;-1.192;2023-10-08T05:47:11;10.77;;;4.95;;
46755;SDS011;32506;52.826;-1.192;2023-10-08T05:50:02;8.52;;;4.80;;
46755;SDS011;32506;52.826;-1.192;2023-10-08T05:53:03;11.15;;;5.13;;
46755;SDS011;32506;52.826;-1.192;2023-10-08T05:55:40;9.45;;;4.90;;
46755;SDS011;32506;52.826;-1.192;2023-10-08T05:58:12;9.77;;;5.47;;
46755;SDS011;32506;52.826;-1.192;2023-10-08T06:00:42;10.60;;;4.70;;
46755;SDS011;32506;52.826;-1.192;2023-10-08T06:03:15;10.13;;;5.55;;
46755;SDS011;32506;52.826;-1.192;2023-10-08T06:06:00;9.45;;;5.18;;
46755;SDS011;32506;52.826;-1.192;2023-10-08T06:08:47;9.27;;;4.95;;
46755;SDS011;32506;52.826;-1.192;2023-10-08T06:11:15;11.05;;;5.45;;
46755;SDS011;32506;52.826;-1.192;2023-10-08T06:14:09;10.65;;;5.70;;
46755;SDS011;32506;52.826;-1.192;2023-10-08T06:17:01;9.20;;;4.72;;
46755;SDS011;32506;52.826;-1.192;2023-10-08T06:19:41;8.18;;;4.75;;
46755;SDS011;32506;52.826;-1.192;2023-10-08T06:22:08;9.13;;;4.60;;
46755;SDS011;32506;52.826;-1.192;2023-10-08T06:24:33;10.55;;;5.55;;
46755;SDS011;32506;52.826;-1.192;2023-10-08T06:27:03;10.77;;;5.28;;
46755;SDS011;32506;52.826;-1.192;2023-10-08T06:29:30;8.35;;;4.47;;
46755;SDS011;32506;52.826;-1.192;2023-10-08T06:31:57;10.80;;;5.60;;
46755;SDS011;32506;52.826;-1.192;2023-10-08T06:34:27;9.65;;;4.75;;
46755;SDS011;32506;52.826;-1.192;2023-10-08T06:36:56;8.85;;;4.47;;
46755;SDS011;32506;52.826;-1.192;2023-10-08T06:39:24;10.88;;;4.63;;
46755;SDS011;32506;52.826;-1.192;2023-10-08T06:41:54;9.48;;;4.95;;
46755;SDS011;32506;52.826;-1.192;2023-10-08T06:44:21;9.63;;;4.60;;
46755;SDS011;32506;52.826;-1.192;2023-10-08T06:46:48;10.57;;;5.28;;
46755;SDS011;32506;52.826;-1.192;2023-10-08T06:49:13;8.75;;;4.50;;
46755;SDS011;32506;52.826;-1.192;2023-10-08T06:51:39;9.23;;;4.68;;
46755;SDS011;32506;52.826;-1.192;2023-10-08T06:54:07;9.25;;;4.75;;
46755;SDS011;32506;52.826;-1.192;2023-10-08T06:56:35;9.68;;;4.80;;
46755;SDS011;32506;52.826;-1.192;2023-10-08T06:59:01;9.98;;;5.20;;
46755;SDS011;32506;52.826;-1.192;2023-10-08T07:01:28;9.88;;;4.57;;
46755;SDS011;32506;52.826;-1.192;2023-10-08T07:04:04;9.00;;;5.07;;
46755;SDS011;32506;52.826;-1.192;2023-10-08T07:06:37;11.27;;;4.85;;
46755;SDS011;32506;52.826;-1.192;2023-10-08T07:09:05;10.35;;;4.97;;
46755;SDS011;32506;52.826;-1.192;2023-10-08T07:11:31;10.88;;;4.68;;
46755;SDS011;32506;52.826;-1.192;2023-10-08T07:14:04;10.30;;;5.35;;
46755;SDS011;32506;52.826;-1.192;2023-10-08T07:16:33;8.88;;;4.47;;
46755;SDS011;32506;52.826;-1.192;2023-10-08T07:18:59;9.70;;;5.32;;
46755;SDS011;32506;52.826;-1.192;2023-10-08T07:21:41;12.75;;;5.20;;
46755;SDS011;32506;52.826;-1.192;2023-10-08T07:24:13;9.37;;;4.93;;
46755;SDS011;32506;52.826;-1.192;2023-10-08T07:26:45;10.73;;;4.82;;
46755;SDS011;32506;52.826;-1.192;2023-10-08T07:29:15;10.15;;;5.22;;
46755;SDS011;32506;52.826;-1.192;2023-10-08T07:31:47;10.10;;;4.50;;
46755;SDS011;32506;52.826;-1.192;2023-10-08T07:34:18;9.20;;;4.75;;
46755;SDS011;32506;52.826;-1.192;2023-10-08T07:36:50;8.98;;;4.75;;
46755;SDS011;32506;52.826;-1.192;2023-10-08T07:39:18;9.73;;;4.85;;
46755;SDS011;32506;52.826;-1.192;2023-10-08T07:41:56;8.57;;;4.57;;
46755;SDS011;32506;52.826;-1.192;2023-10-08T07:44:24;9.35;;;4.82;;
46755;SDS011;32506;52.826;-1.192;2023-10-08T07:46:51;8.27;;;5.10;;
46755;SDS011;32506;52.826;-1.192;2023-10-08T07:49:19;9.63;;;5.18;;
46755;SDS011;32506;52.826;-1.192;2023-10-08T07:51:45;10.25;;;4.78;;
46755;SDS011;32506;52.826;-1.192;2023-10-08T07:54:20;7.85;;;4.05;;
46755;SDS011;32506;52.826;-1.192;2023-10-08T07:56:48;8.93;;;4.60;;
46755;SDS011;32506;52.826;-1.192;2023-10-08T07:59:14;10.23;;;5.32;;
46755;SDS011;32506;52.826;-1.192;2023-10-08T08:01:41;11.05;;;5.60;;
46755;SDS011;32506;52.826;-1.192;2023-10-08T08:04:11;13.77;;;5.50;;
46755;SDS011;32506;52.826;-1.192;2023-10-08T08:06:50;10.18;;;4.85;;
46755;SDS011;32506;52.826;-1.192;2023-10-08T08:09:19;10.45;;;5.57;;
46755;SDS011;32506;52.826;-1.192;2023-10-08T08:11:45;9.55;;;4.75;;
46755;SDS011;32506;52.826;-1.192;2023-10-08T08:14:15;9.75;;;5.35;;
46755;SDS011;32506;52.826;-1.192;2023-10-08T08:16:49;9.68;;;4.55;;
46755;SDS011;32506;52.826;-1.192;2023-10-08T08:19:15;8.85;;;5.22;;
46755;SDS011;32506;52.826;-1.192;2023-10-08T08:21:42;11.13;;;5.10;;
46755;SDS011;32506;52.826;-1.192;2023-10-08T08:24:11;12.90;;;5.03;;
46755;SDS011;32506;52.826;-1.192;2023-10-08T08:26:54;10.02;;;4.78;;
46755;SDS011;32506;52.826;-1.192;2023-10-08T08:29:36;9.88;;;5.05;;
46755;SDS011;32506;52.826;-1.192;2023-10-08T08:32:11;9.50;;;5.35;;
46755;SDS011;32506;52.826;-1.192;2023-10-08T08:34:46;9.02;;;5.22;;
46755;SDS011;32506;52.826;-1.192;2023-10-08T08:37:15;9.30;;;4.97;;
46755;SDS011;32506;52.826;-1.192;2023-10-08T08:39:42;9.65;;;4.72;;
46755;SDS011;32506;52.826;-1.192;2023-10-08T08:42:07;9.82;;;4.93;;
46755;SDS011;32506;52.826;-1.192;2023-10-08T08:44:37;11.25;;;5.28;;
46755;SDS011;32506;52.826;-1.192;2023-10-08T08:47:12;12.27;;;5.32;;
46755;SDS011;32506;52.826;-1.192;2023-10-08T08:49:47;10.88;;;5.70;;
46755;SDS011;32506;52.826;-1.192;2023-10-08T08:52:13;12.27;;;5.55;;
46755;SDS011;32506;52.826;-1.192;2023-10-08T08:54:40;8.57;;;5.00;;
46755;SDS011;32506;52.826;-1.192;2023-10-08T08:57:09;9.73;;;5.22;;
46755;SDS011;32506;52.826;-1.192;2023-10-08T08:59:48;11.25;;;5.90;;
46755;SDS011;32506;52.826;-1.192;2023-10-08T09:02:18;9.20;;;5.00;;
46755;SDS011;32506;52.826;-1.192;2023-10-08T09:04:43;8.57;;;4.55;;
46755;SDS011;32506;52.826;-1.192;2023-10-08T09:07:10;11.45;;;5.10;;
46755;SDS011;32506;52.826;-1.192;2023-10-08T09:09:37;9.23;;;4.97;;
46755;SDS011;32506;52.826;-1.192;2023-10-08T09:12:06;9.20;;;5.07;;
46755;SDS011;32506;52.826;-1.192;2023-10-08T09:14:35;9.40;;;5.47;;
46755;SDS011;32506;52.826;-1.192;2023-10-08T09:17:02;10.65;;;5.88;;
46755;SDS011;32506;52.826;-1.192;2023-10-08T09:19:30;10.75;;;5.13;;
46755;SDS011;32506;52.826;-1.192;2023-10-08T09:22:02;9.10;;;4.65;;
46755;SDS011;32506;52.826;-1.192;2023-10-08T09:24:30;11.50;;;5.57;;
46755;SDS011;32506;52.826;-1.192;2023-10-08T09:27:06;11.52;;;5.78;;
46755;SDS011;32506;52.826;-1.192;2023-10-08T09:29:33;11.77;;;5.20;;
46755;SDS011;32506;52.826;-1.192;2023-10-08T09:32:05;11.32;;;5.80;;
46755;SDS011;32506;52.826;-1.192;2023-10-08T09:34:31;11.57;;;5.53;;
46755;SDS011;32506;52.826;-1.192;2023-10-08T09:36:58;12.60;;;5.25;;
46755;SDS011;32506;52.826;-1.192;2023-10-08T09:39:28;10.77;;;6.00;;
46755;SDS011;32506;52.826;-1.192;2023-10-08T09:41:59;11.13;;;5.63;;
46755;SDS011;32506;52.826;-1.192;2023-10-08T09:44:27;10.05;;;5.38;;
46755;SDS011;32506;52.826;-1.192;2023-10-08T09:47:03;11.88;;;5.72;;
46755;SDS011;32506;52.826;-1.192;2023-10-08T09:49:36;13.85;;;5.85;;
46755;SDS011;32506;52.826;-1.192;2023-10-08T09:52:07;10.48;;;6.03;;
46755;SDS011;32506;52.826;-1.192;2023-10-08T09:57:14;12.80;;;5.95;;
46755;SDS011;32506;52.826;-1.192;2023-10-08T09:59:44;11.02;;;5.43;;
46755;SDS011;32506;52.826;-1.192;2023-10-08T10:02:12;9.82;;;5.50;;
46755;SDS011;32506;52.826;-1.192;2023-10-08T10:04:44;15.07;;;8.30;;
46755;SDS011;32506;52.826;-1.192;2023-10-08T10:07:10;16.02;;;8.07;;
46755;SDS011;32506;52.826;-1.192;2023-10-08T10:09:42;15.75;;;8.30;;
46755;SDS011;32506;52.826;-1.192;2023-10-08T10:12:09;19.15;;;8.55;;
46755;SDS011;32506;52.826;-1.192;2023-10-08T10:14:46;18.77;;;8.38;;
46755;SDS011;32506;52.826;-1.192;2023-10-08T10:17:14;17.48;;;8.48;;
46755;SDS011;32506;52.826;-1.192;2023-10-08T10:19:43;17.00;;;8.05;;
46755;SDS011;32506;52.826;-1.192;2023-10-08T10:22:14;15.38;;;7.88;;
46755;SDS011;32506;52.826;-1.192;2023-10-08T10:24:52;15.95;;;8.07;;
46755;SDS011;32506;52.826;-1.192;2023-10-08T10:27:23;21.25;;;8.45;;
46755;SDS011;32506;52.826;-1.192;2023-10-08T10:32:16;18.08;;;8.20;;
46755;SDS011;32506;52.826;-1.192;2023-10-08T10:34:44;16.73;;;7.95;;
46755;SDS011;32506;52.826;-1.192;2023-10-08T10:37:12;17.63;;;8.05;;
46755;SDS011;32506;52.826;-1.192;2023-10-08T10:39:57;18.48;;;8.13;;
46755;SDS011;32506;52.826;-1.192;2023-10-08T10:42:26;13.32;;;6.85;;
46755;SDS011;32506;52.826;-1.192;2023-10-08T10:44:53;15.40;;;7.50;;
46755;SDS011;32506;52.826;-1.192;2023-10-08T10:47:21;14.20;;;7.82;;
46755;SDS011;32506;52.826;-1.192;2023-10-08T10:49:50;13.23;;;7.40;;
46755;SDS011;32506;52.826;-1.192;2023-10-08T10:52:17;18.58;;;7.05;;
46755;SDS011;32506;52.826;-1.192;2023-10-08T10:55:08;12.38;;;6.68;;
46755;SDS011;32506;52.826;-1.192;2023-10-08T10:57:46;17.48;;;7.18;;
46755;SDS011;32506;52.826;-1.192;2023-10-08T11:00:36;16.88;;;7.28;;
46755;SDS011;32506;52.826;-1.192;2023-10-08T11:03:02;13.45;;;7.55;;
46755;SDS011;32506;52.826;-1.192;2023-10-08T11:05:35;19.15;;;7.28;;
46755;SDS011;32506;52.826;-1.192;2023-10-08T11:08:05;18.67;;;7.30;;
46755;SDS011;32506;52.826;-1.192;2023-10-08T11:10:32;17.50;;;7.95;;
46755;SDS011;32506;52.826;-1.192;2023-10-08T11:13:05;14.60;;;7.25;;
46755;SDS011;32506;52.826;-1.192;2023-10-08T11:15:39;14.18;;;6.65;;
46755;SDS011;32506;52.826;-1.192;2023-10-08T11:18:12;15.88;;;7.60;;
46755;SDS011;32506;52.826;-1.192;2023-10-08T11:20:41;15.98;;;6.93;;
46755;SDS011;32506;52.826;-1.192;2023-10-08T11:23:35;14.65;;;6.30;;
46755;SDS011;32506;52.826;-1.192;2023-10-08T11:26:37;13.43;;;6.97;;
46755;SDS011;32506;52.826;-1.192;2023-10-08T11:29:19;13.20;;;6.55;;
46755;SDS011;32506;52.826;-1.192;2023-10-08T11:31:51;16.30;;;7.60;;
46755;SDS011;32506;52.826;-1.192;2023-10-08T11:34:18;13.88;;;7.00;;
46755;SDS011;32506;52.826;-1.192;2023-10-08T11:36:54;15.20;;;7.10;;
46755;SDS011;32506;52.826;-1.192;2023-10-08T11:39:20;13.10;;;7.20;;
46755;SDS011;32506;52.826;-1.192;2023-10-08T11:41:55;18.10;;;7.93;;
46755;SDS011;32506;52.826;-1.192;2023-10-08T11:44:31;15.93;;;6.80;;
46755;SDS011;32506;52.826;-1.192;2023-10-08T11:47:01;11.75;;;6.68;;
46755;SDS011;32506;52.826;-1.192;2023-10-08T11:49:36;12.70;;;7.15;;
46755;SDS011;32506;52.826;-1.192;2023-10-08T11:52:11;18.73;;;7.15;;
46755;SDS011;32506;52.826;-1.192;2023-10-08T11:54:38;13.65;;;6.88;;
46755;SDS011;32506;52.826;-1.192;2023-10-08T11:57:07;12.43;;;6.50;;
46755;SDS011;32506;52.826;-1.192;2023-10-08T11:59:34;9.75;;;5.07;;
46755;SDS011;32506;52.826;-1.192;2023-10-08T12:02:04;11.45;;;5.43;;
46755;SDS011;32506;52.826;-1.192;2023-10-08T12:04:31;12.30;;;4.63;;
46755;SDS011;32506;52.826;-1.192;2023-10-08T12:06:56;10.95;;;5.05;;
46755;SDS011;32506;52.826;-1.192;2023-10-08T12:09:22;11.40;;;4.30;;
46755;SDS011;32506;52.826;-1.192;2023-10-08T12:11:52;10.82;;;4.55;;
46755;SDS011;32506;52.826;-1.192;2023-10-08T12:14:17;10.43;;;4.43;;
46755;SDS011;32506;52.826;-1.192;2023-10-08T12:16:43;8.63;;;3.55;;
46755;SDS011;32506;52.826;-1.192;2023-10-08T12:19:10;7.82;;;3.78;;
46755;SDS011;32506;52.826;-1.192;2023-10-08T12:24:11;6.85;;;3.78;;
46755;SDS011;32506;52.826;-1.192;2023-10-08T12:26:37;8.13;;;3.40;;
46755;SDS011;32506;52.826;-1.192;2023-10-08T12:29:10;9.73;;;3.50;;
46755;SDS011;32506;52.826;-1.192;2023-10-08T12:31:37;7.85;;;3.05;;
46755;SDS011;32506;52.826;-1.192;2023-10-08T12:34:02;6.00;;;3.45;;
46755;SDS011;32506;52.826;-1.192;2023-10-08T12:36:29;5.68;;;2.80;;
46755;SDS011;32506;52.826;-1.192;2023-10-08T12:38:58;6.38;;;2.92;;
46755;SDS011;32506;52.826;-1.192;2023-10-08T12:41:24;7.75;;;2.78;;
46755;SDS011;32506;52.826;-1.192;2023-10-08T12:43:52;6.22;;;3.13;;
46755;SDS011;32506;52.826;-1.192;2023-10-08T12:46:18;7.20;;;2.97;;
46755;SDS011;32506;52.826;-1.192;2023-10-08T12:48:49;7.00;;;3.25;;
46755;SDS011;32506;52.826;-1.192;2023-10-08T12:51:18;5.90;;;2.70;;
46755;SDS011;32506;52.826;-1.192;2023-10-08T12:53:48;6.40;;;2.83;;
46755;SDS011;32506;52.826;-1.192;2023-10-08T12:56:23;5.13;;;2.35;;
46755;SDS011;32506;52.826;-1.192;2023-10-08T12:58:56;9.35;;;3.15;;
46755;SDS011;32506;52.826;-1.192;2023-10-08T13:01:23;5.05;;;2.58;;
46755;SDS011;32506;52.826;-1.192;2023-10-08T13:03:48;7.93;;;2.80;;
46755;SDS011;32506;52.826;-1.192;2023-10-08T13:06:15;6.22;;;2.80;;
46755;SDS011;32506;52.826;-1.192;2023-10-08T13:08:53;5.10;;;2.78;;
46755;SDS011;32506;52.826;-1.192;2023-10-08T13:11:20;5.65;;;2.88;;
46755;SDS011;32506;52.826;-1.192;2023-10-08T13:13:50;6.38;;;3.10;;
46755;SDS011;32506;52.826;-1.192;2023-10-08T13:16:17;5.50;;;2.83;;
46755;SDS011;32506;52.826;-1.192;2023-10-08T13:21:13;6.05;;;2.80;;
46755;SDS011;32506;52.826;-1.192;2023-10-08T13:23:39;6.18;;;3.00;;
46755;SDS011;32506;52.826;-1.192;2023-10-08T13:26:05;7.30;;;2.63;;
46755;SDS011;32506;52.826;-1.192;2023-10-08T13:28:32;5.97;;;2.47;;
46755;SDS011;32506;52.826;-1.192;2023-10-08T13:31:04;8.38;;;3.08;;
46755;SDS011;32506;52.826;-1.192;2023-10-08T13:33:39;6.25;;;2.72;;
46755;SDS011;32506;52.826;-1.192;2023-10-08T13:36:08;6.20;;;2.83;;
46755;SDS011;32506;52.826;-1.192;2023-10-08T13:38:35;7.95;;;3.30;;
46755;SDS011;32506;52.826;-1.192;2023-10-08T13:41:01;5.80;;;2.90;;
46755;SDS011;32506;52.826;-1.192;2023-10-08T13:43:46;7.80;;;3.50;;
46755;SDS011;32506;52.826;-1.192;2023-10-08T13:46:13;8.75;;;3.05;;
46755;SDS011;32506;52.826;-1.192;2023-10-08T13:48:41;8.15;;;3.45;;
46755;SDS011;32506;52.826;-1.192;2023-10-08T13:51:11;6.85;;;3.00;;
46755;SDS011;32506;52.826;-1.192;2023-10-08T13:53:41;6.53;;;2.75;;
46755;SDS011;32506;52.826;-1.192;2023-10-08T13:56:10;8.38;;;3.25;;
46755;SDS011;32506;52.826;-1.192;2023-10-08T13:58:36;7.53;;;3.30;;
46755;SDS011;32506;52.826;-1.192;2023-10-08T14:01:06;7.40;;;3.50;;
46755;SDS011;32506;52.826;-1.192;2023-10-08T14:03:50;6.72;;;2.88;;
46755;SDS011;32506;52.826;-1.192;2023-10-08T14:06:20;12.18;;;3.35;;
46755;SDS011;32506;52.826;-1.192;2023-10-08T14:08:47;9.68;;;3.55;;
46755;SDS011;32506;52.826;-1.192;2023-10-08T14:11:20;9.15;;;3.40;;
46755;SDS011;32506;52.826;-1.192;2023-10-08T14:13:49;7.22;;;3.22;;
46755;SDS011;32506;52.826;-1.192;2023-10-08T14:16:20;5.45;;;2.63;;
46755;SDS011;32506;52.826;-1.192;2023-10-08T14:18:53;6.95;;;3.53;;
46755;SDS011;32506;52.826;-1.192;2023-10-08T14:21:19;6.15;;;2.78;;
46755;SDS011;32506;52.826;-1.192;2023-10-08T14:23:49;6.53;;;3.20;;
46755;SDS011;32506;52.826;-1.192;2023-10-08T14:26:17;7.85;;;3.42;;
46755;SDS011;32506;52.826;-1.192;2023-10-08T14:28:47;8.07;;;3.30;;
46755;SDS011;32506;52.826;-1.192;2023-10-08T14:31:18;7.47;;;3.53;;
46755;SDS011;32506;52.826;-1.192;2023-10-08T14:33:47;7.13;;;3.40;;
46755;SDS011;32506;52.826;-1.192;2023-10-08T14:36:52;9.15;;;3.53;;
46755;SDS011;32506;52.826;-1.192;2023-10-08T14:39:54;6.22;;;3.28;;
46755;SDS011;32506;52.826;-1.192;2023-10-08T14:45:57;8.02;;;3.00;;
46755;SDS011;32506;52.826;-1.192;2023-10-08T14:48:45;7.57;;;3.35;;
46755;SDS011;32506;52.826;-1.192;2023-10-08T14:51:11;7.13;;;3.38;;
46755;SDS011;32506;52.826;-1.192;2023-10-08T14:53:44;8.73;;;3.22;;
46755;SDS011;32506;52.826;-1.192;2023-10-08T14:56:09;7.65;;;3.40;;
46755;SDS011;32506;52.826;-1.192;2023-10-08T14:58:35;7.30;;;2.95;;
46755;SDS011;32506;52.826;-1.192;2023-10-08T15:01:00;6.75;;;3.30;;
46755;SDS011;32506;52.826;-1.192;2023-10-08T15:03:26;6.20;;;2.78;;
46755;SDS011;32506;52.826;-1.192;2023-10-08T15:05:52;5.38;;;3.20;;
46755;SDS011;32506;52.826;-1.192;2023-10-08T15:08:18;4.97;;;2.75;;
46755;SDS011;32506;52.826;-1.192;2023-10-08T15:10:44;6.05;;;2.90;;